Time;durP1;ratioP1;P1;durP2;ratioP2;P2;SDS_P1;SDS_P2;PMS_P1;PMS_P2;Temp;Humidity;BMP_temperature;BMP_pressure;BME280_temperature;BME280_humidity;BME280_pressure;Samples;Min_cycle;Max_cycle;Signal;HPM_P1;HPM_P2
2022/10/03 00:02:17;;;;;;;14.40;2.35;;;11.70;99.90;;;;;;5016630;28;20444;-70
2022/10/03 00:05:04;;;;;;;14.65;2.50;;;11.70;99.90;;;;;;5010095;28;20403;-61
2022/10/03 00:08:08;;;;;;;14.35;2.28;;;11.60;99.90;;;;;;4997707;28;20590;-61
2022/10/03 00:10:33;;;;;;;10.63;2.33;;;11.60;99.90;;;;;;5009453;28;20045;-68
2022/10/03 00:13:12;;;;;;;14.23;2.45;;;11.60;99.90;;;;;;5009915;28;20041;-59
2022/10/03 00:15:48;;;;;;;10.77;1.70;;;11.60;99.90;;;;;;5008519;28;20523;-63
2022/10/03 00:18:40;;;;;;;16.15;2.75;;;11.50;99.90;;;;;;5010002;28;20045;-61
2022/10/03 00:21:33;;;;;;;21.08;3.75;;;11.50;99.90;;;;;;5008690;28;20132;-62
2022/10/03 00:24:23;;;;;;;18.40;3.28;;;11.50;99.90;;;;;;5007370;28;20412;-64
2022/10/03 00:26:55;;;;;;;19.33;2.90;;;11.50;99.90;;;;;;5009468;28;20468;-61
2022/10/03 00:29:37;;;;;;;11.45;2.30;;;11.40;99.90;;;;;;5008707;28;20100;-60
2022/10/03 00:32:30;;;;;;;15.77;3.15;;;11.40;99.90;;;;;;5001148;28;20377;-65
2022/10/03 00:35:11;;;;;;;18.23;2.38;;;11.40;99.90;;;;;;5006942;28;22121;-64
2022/10/03 00:37:54;;;;;;;13.05;2.45;;;11.40;99.90;;;;;;4991786;28;20037;-68
2022/10/03 00:40:39;;;;;;;9.65;2.03;;;11.40;99.90;;;;;;5009747;28;20044;-67
2022/10/03 00:43:29;;;;;;;14.55;2.67;;;11.40;99.90;;;;;;5009296;28;20053;-59
2022/10/03 00:45:58;;;;;;;;;;;11.40;99.90;;;;;;4999280;28;20459;-63
2022/10/03 00:48:42;;;;;;;14.57;2.42;;;11.40;99.90;;;;;;5009766;28;20459;-66
2022/10/03 00:51:26;;;;;;;18.40;2.65;;;11.40;99.90;;;;;;5008646;28;20532;-62
2022/10/03 00:54:07;;;;;;;15.15;2.78;;;11.50;99.90;;;;;;5009040;28;20052;-66
2022/10/03 00:57:03;;;;;;;19.23;2.78;;;11.50;99.90;;;;;;4998013;28;20500;-60
2022/10/03 01:00:00;;;;;;;10.00;2.05;;;11.50;99.90;;;;;;4996942;28;20052;-62
2022/10/03 01:02:26;;;;;;;12.18;2.17;;;11.50;99.90;;;;;;5008945;28;20049;-66
2022/10/03 01:05:17;;;;;;;17.25;2.45;;;11.50;99.90;;;;;;5008810;28;20045;-61
2022/10/03 01:08:14;;;;;;;13.60;1.92;;;11.50;99.90;;;;;;5022338;28;20044;-66
2022/10/03 01:10:51;;;;;;;9.63;1.95;;;11.50;99.90;;;;;;4992517;28;20057;-71
2022/10/03 01:13:34;;;;;;;11.43;2.45;;;11.50;99.90;;;;;;5008825;28;20049;-61
2022/10/03 01:16:36;;;;;;;14.10;3.63;;;11.60;99.90;;;;;;4990880;28;20336;-64
2022/10/03 01:19:27;;;;;;;21.88;4.25;;;11.60;99.90;;;;;;5003684;28;20057;-63
2022/10/03 01:22:31;;;;;;;22.02;3.08;;;11.60;99.90;;;;;;5008096;28;20061;-59
2022/10/03 01:25:10;;;;;;;13.70;2.40;;;11.60;99.90;;;;;;5007608;28;20500;-63
2022/10/03 01:30:56;;;;;;;14.88;2.28;;;11.50;99.90;;;;;;5008076;28;20103;-70
2022/10/03 01:33:33;;;;;;;15.52;2.92;;;11.50;99.90;;;;;;4978341;28;20041;-66
2022/10/03 01:36:08;;;;;;;12.48;2.40;;;11.50;99.90;;;;;;5008737;28;20058;-63
2022/10/03 01:38:56;;;;;;;11.85;2.53;;;11.40;99.90;;;;;;4999286;28;20093;-65
2022/10/03 01:41:44;;;;;;;16.48;2.30;;;11.40;99.90;;;;;;5008812;28;20057;-59
2022/10/03 01:44:25;;;;;;;15.52;2.28;;;11.40;99.90;;;;;;5009375;28;20388;-64
2022/10/03 01:47:17;;;;;;;17.63;2.88;;;11.40;99.90;;;;;;4991166;28;20149;-60
2022/10/03 01:50:04;;;;;;;16.10;2.67;;;11.40;99.90;;;;;;4987602;28;20095;-62
2022/10/03 01:52:56;;;;;;;24.23;3.35;;;11.50;99.90;;;;;;5008723;28;20053;-61
2022/10/03 01:55:44;;;;;;;13.85;2.83;;;11.40;99.90;;;;;;5025204;28;20377;-62
2022/10/03 01:58:55;;;;;;;18.60;2.50;;;11.60;99.90;;;;;;5024602;28;20065;-66
2022/10/03 02:01:54;;;;;;;13.25;2.50;;;11.60;99.90;;;;;;4948232;28;20054;-65
2022/10/03 02:04:47;;;;;;;14.60;2.72;;;11.60;99.90;;;;;;5007361;28;20061;-67
2022/10/03 02:07:47;;;;;;;15.10;2.85;;;11.70;99.90;;;;;;5008652;28;20571;-65
2022/10/03 02:10:40;;;;;;;11.30;1.77;;;11.70;99.90;;;;;;5007997;28;20050;-62
2022/10/03 02:13:24;;;;;;;12.48;2.63;;;11.70;99.90;;;;;;5007036;28;20379;-64
2022/10/03 02:16:09;;;;;;;14.55;2.63;;;11.70;99.90;;;;;;5008394;28;20392;-64
2022/10/03 02:18:56;;;;;;;15.52;2.72;;;11.70;99.90;;;;;;5007216;28;20570;-66
2022/10/03 02:21:26;;;;;;;13.35;2.30;;;11.70;99.90;;;;;;5023384;28;20627;-67
2022/10/03 02:24:13;;;;;;;14.90;2.63;;;11.70;99.90;;;;;;5026086;28;20050;-65
2022/10/03 02:27:03;;;;;;;20.33;2.35;;;11.60;99.90;;;;;;5007550;28;20099;-61
2022/10/03 02:29:44;;;;;;;10.10;2.40;;;11.60;99.90;;;;;;5007105;28;20075;-63
2022/10/03 02:32:22;;;;;;;12.70;4.30;;;11.60;99.90;;;;;;4991914;28;20132;-66
2022/10/03 02:35:08;;;;;;;19.80;4.07;;;11.60;99.90;;;;;;5023116;28;20124;-70
2022/10/03 02:37:56;;;;;;;23.60;5.03;;;11.60;99.90;;;;;;5008680;28;20495;-65
2022/10/03 02:40:21;;;;;;;25.88;4.95;;;11.60;99.90;;;;;;5008098;28;20045;-60
2022/10/03 02:42:57;;;;;;;18.60;4.20;;;11.70;99.90;;;;;;5008575;28;20120;-65
2022/10/03 02:45:42;;;;;;;17.45;4.93;;;11.80;99.90;;;;;;5011831;28;20628;-71
2022/10/03 02:48:14;;;;;;;12.25;3.10;;;11.80;99.90;;;;;;5010145;28;20049;-64
2022/10/03 02:51:17;;;;;;;22.73;3.72;;;11.80;99.90;;;;;;4995149;28;20482;-64
2022/10/03 02:54:02;;;;;;;18.27;3.83;;;11.90;99.90;;;;;;5011694;28;20085;-60
2022/10/03 02:56:36;;;;;;;20.23;3.80;;;11.90;99.90;;;;;;5010338;28;20064;-65
2022/10/03 02:59:21;;;;;;;13.27;3.08;;;11.90;99.90;;;;;;5011652;28;20199;-62
2022/10/03 03:02:28;;;;;;;7.68;2.40;;;11.90;99.90;;;;;;5011125;28;20140;-60
2022/10/03 03:05:24;;;;;;;14.50;2.38;;;11.90;99.90;;;;;;5005547;28;20089;-59
2022/10/03 03:08:34;;;;;;;7.72;1.73;;;12.00;99.90;;;;;;5002028;28;20057;-64
2022/10/03 03:11:30;;;;;;;10.75;2.13;;;12.00;99.90;;;;;;4992865;28;20057;-68
2022/10/03 03:14:14;;;;;;;10.38;1.48;;;12.00;99.90;;;;;;4993801;28;20057;-67
2022/10/03 03:17:00;;;;;;;19.60;3.13;;;11.90;99.90;;;;;;5011225;28;20132;-66
2022/10/03 03:19:40;;;;;;;12.10;2.33;;;11.90;99.90;;;;;;4994974;28;20041;-65
2022/10/03 03:22:15;;;;;;;10.77;1.88;;;11.80;99.90;;;;;;5009262;28;20488;-66
2022/10/03 03:25:25;;;;;;;12.13;1.92;;;11.80;99.90;;;;;;4996135;28;20435;-62
2022/10/03 03:28:21;;;;;;;17.75;2.65;;;11.70;99.90;;;;;;4962259;28;20072;-63
2022/10/03 03:30:52;;;;;;;14.23;2.03;;;11.60;99.90;;;;;;5009719;28;20165;-66
2022/10/03 03:33:54;;;;;;;13.40;2.20;;;11.60;99.90;;;;;;5010271;28;20116;-60
2022/10/03 03:36:26;;;;;;;23.65;4.30;;;11.50;99.90;;;;;;5010957;28;20057;-66
2022/10/03 03:39:12;;;;;;;10.35;1.80;;;11.40;99.90;;;;;;5010034;28;20132;-62
2022/10/03 03:41:54;;;;;;;9.25;2.22;;;11.40;99.90;;;;;;5011471;28;20078;-59
2022/10/03 03:44:47;;;;;;;10.00;2.03;;;11.40;99.90;;;;;;4993197;28;20068;-68
2022/10/03 03:47:45;;;;;;;12.35;2.13;;;11.40;99.90;;;;;;4982119;28;20053;-66
2022/10/03 03:50:14;;;;;;;8.98;1.92;;;11.30;99.90;;;;;;4994095;28;20278;-60
2022/10/03 03:53:08;;;;;;;9.50;1.80;;;11.40;99.90;;;;;;5009130;28;20061;-66
2022/10/03 03:55:52;;;;;;;13.98;2.05;;;11.30;99.90;;;;;;4997112;28;20108;-59
2022/10/03 03:58:27;;;;;;;14.75;2.08;;;11.30;99.90;;;;;;5010413;28;20079;-64
2022/10/03 04:00:56;;;;;;;13.40;2.05;;;11.30;99.90;;;;;;5008913;28;20076;-63
2022/10/03 04:03:43;;;;;;;17.05;2.20;;;11.30;99.90;;;;;;5010474;28;20583;-60
2022/10/03 04:06:35;;;;;;;15.32;2.40;;;11.40;99.90;;;;;;4992923;28;20045;-62
2022/10/03 04:09:42;;;;;;;11.88;1.95;;;11.40;99.90;;;;;;5009257;28;20053;-67
2022/10/03 04:12:29;;;;;;;14.57;2.42;;;11.50;99.90;;;;;;5010446;28;20671;-70
2022/10/03 04:14:57;;;;;;;15.13;2.10;;;11.50;99.90;;;;;;5001463;28;20363;-59
2022/10/03 04:21:11;;;;;;;8.73;1.80;;;11.60;99.90;;;;;;5007525;28;20063;-66
2022/10/03 04:24:05;;;;;;;10.60;2.03;;;11.60;99.90;;;;;;5024805;28;20049;-59
2022/10/03 04:27:00;;;;;;;14.38;1.77;;;11.60;99.90;;;;;;5001851;28;20047;-60
2022/10/03 04:29:46;;;;;;;12.38;2.25;;;11.60;99.90;;;;;;5021233;28;20033;-61
2022/10/03 04:32:49;;;;;;;17.15;2.63;;;11.60;99.90;;;;;;5003989;28;20041;-60
2022/10/03 04:35:53;;;;;;;15.40;2.85;;;11.60;99.90;;;;;;5004542;28;20128;-60
2022/10/03 04:38:38;;;;;;;19.65;2.25;;;11.70;99.90;;;;;;5001820;28;20077;-62
2022/10/03 04:41:39;;;;;;;16.00;2.38;;;11.70;99.90;;;;;;4992555;28;20492;-67
2022/10/03 04:44:43;;;;;;;18.27;2.50;;;11.60;99.90;;;;;;4991667;28;20515;-66
2022/10/03 04:47:25;;;;;;;9.93;1.90;;;11.60;99.90;;;;;;5003231;28;20056;-66
2022/10/03 04:50:10;;;;;;;16.65;1.92;;;11.60;99.90;;;;;;5002817;28;20057;-60
2022/10/03 04:52:50;;;;;;;6.18;1.88;;;11.60;99.90;;;;;;5003577;28;20072;-68
2022/10/03 04:55:30;;;;;;;22.42;2.25;;;11.50;99.90;;;;;;4992600;28;20053;-70
2022/10/03 04:58:36;;;;;;;15.52;2.15;;;11.50;99.90;;;;;;4996593;28;20051;-63
2022/10/03 05:01:34;;;;;;;12.48;2.60;;;11.40;99.90;;;;;;5003638;28;20142;-71
2022/10/03 05:04:39;;;;;;;9.98;2.35;;;11.40;99.90;;;;;;5004654;28;20092;-68
2022/10/03 05:07:42;;;;;;;10.80;1.98;;;11.40;99.90;;;;;;4999619;28;20062;-63
2022/10/03 05:10:42;;;;;;;9.25;1.50;;;11.30;99.90;;;;;;5016632;28;20156;-65
2022/10/03 05:13:21;;;;;;;17.75;2.67;;;11.40;99.90;;;;;;4996984;28;20056;-64
2022/10/03 05:16:18;;;;;;;17.05;3.45;;;11.40;99.90;;;;;;5009157;28;20060;-59
2022/10/03 05:18:54;;;;;;;10.77;2.30;;;11.40;99.90;;;;;;5006567;28;20060;-66
2022/10/03 05:21:29;;;;;;;15.95;2.15;;;11.40;99.90;;;;;;5008726;28;20061;-69
2022/10/03 05:24:15;;;;;;;22.70;2.38;;;11.40;99.90;;;;;;5008298;28;20049;-59
2022/10/03 05:27:19;;;;;;;14.45;2.25;;;11.40;99.90;;;;;;5008157;28;20121;-65
2022/10/03 05:30:23;;;;;;;11.18;1.73;;;11.40;99.90;;;;;;5007681;28;20050;-65
2022/10/03 05:33:30;;;;;;;10.25;2.20;;;11.40;99.90;;;;;;5008088;28;20045;-60
2022/10/03 05:36:25;;;;;;;16.35;2.88;;;11.40;99.90;;;;;;5007269;28;20057;-70
2022/10/03 05:39:25;;;;;;;24.85;3.20;;;11.40;99.90;;;;;;5000783;28;20059;-64
2022/10/03 05:41:56;;;;;;;24.38;2.97;;;11.40;99.90;;;;;;5008848;28;20181;-64
2022/10/03 05:44:44;;;;;;;13.00;2.67;;;11.50;99.90;;;;;;4991356;28;20053;-62
2022/10/03 05:47:47;;;;;;;12.55;2.40;;;11.50;99.90;;;;;;5008439;28;20366;-62
2022/10/03 05:50:32;;;;;;;21.15;3.47;;;11.50;99.90;;;;;;4975330;28;20061;-59
2022/10/03 05:53:15;;;;;;;16.95;3.45;;;11.50;99.90;;;;;;4986810;28;20041;-65
2022/10/03 05:56:02;;;;;;;13.95;2.70;;;11.60;99.90;;;;;;5001996;28;20415;-64
2022/10/03 05:58:42;;;;;;;15.02;3.03;;;11.60;99.90;;;;;;4999566;28;20038;-65
2022/10/03 06:01:23;;;;;;;20.40;5.13;;;11.60;99.90;;;;;;4994946;28;20921;-70
2022/10/03 06:03:57;;;;;;;14.85;4.55;;;11.60;99.90;;;;;;4999477;28;20137;-66
2022/10/03 06:06:29;;;;;;;18.55;5.80;;;11.60;99.90;;;;;;5002372;28;20095;-59
2022/10/03 06:09:32;;;;;;;18.15;3.75;;;11.60;99.90;;;;;;4992274;28;20123;-67
2022/10/03 06:12:43;;;;;;;21.65;4.78;;;11.70;99.90;;;;;;5008416;28;20550;-59
2022/10/03 06:15:37;;;;;;;9.50;2.40;;;11.70;99.90;;;;;;4935286;28;20111;-69
2022/10/03 06:18:21;;;;;;;16.52;3.45;;;11.70;99.90;;;;;;4947948;28;20110;-63
2022/10/03 06:20:53;;;;;;;13.93;2.20;;;11.80;99.90;;;;;;5001585;28;20064;-64
2022/10/03 06:23:46;;;;;;;15.60;2.40;;;11.80;99.90;;;;;;5010731;28;20053;-65
2022/10/03 06:26:42;;;;;;;20.90;2.22;;;11.80;99.90;;;;;;5012122;28;20151;-64
2022/10/03 06:29:27;;;;;;;17.70;2.90;;;11.80;99.90;;;;;;5011980;28;20053;-63
2022/10/03 06:32:04;;;;;;;9.52;1.83;;;11.80;99.90;;;;;;5008647;28;20053;-64
2022/10/03 06:34:58;;;;;;;9.88;1.73;;;11.80;99.90;;;;;;5008039;28;20407;-65
2022/10/03 06:37:45;;;;;;;7.88;1.48;;;11.80;99.90;;;;;;5008381;28;20049;-66
2022/10/03 06:40:32;;;;;;;9.45;2.15;;;11.80;99.90;;;;;;5010448;28;20124;-64
2022/10/03 06:43:34;;;;;;;13.38;2.22;;;11.80;99.90;;;;;;5011177;28;20438;-60
2022/10/03 06:46:03;;;;;;;18.77;2.20;;;11.80;99.90;;;;;;4989790;28;20560;-66
2022/10/03 06:48:35;;;;;;;17.65;2.05;;;11.80;99.90;;;;;;5004318;28;20523;-61
2022/10/03 06:51:06;;;;;;;20.50;2.60;;;11.70;99.90;;;;;;5003638;28;20053;-61
2022/10/03 06:54:00;;;;;;;11.85;2.03;;;11.70;99.90;;;;;;5001604;28;20115;-67
2022/10/03 06:56:30;;;;;;;17.63;1.95;;;11.80;99.90;;;;;;5004695;28;20072;-61
2022/10/03 06:59:09;;;;;;;11.95;1.80;;;12.00;99.90;;;;;;5019329;28;20516;-65
2022/10/03 07:01:49;;;;;;;12.88;2.00;;;12.10;99.90;;;;;;4998359;28;20053;-61
2022/10/03 07:04:45;;;;;;;11.00;1.95;;;12.30;99.90;;;;;;4976713;28;20096;-67
2022/10/03 07:07:29;;;;;;;9.68;2.13;;;12.40;99.90;;;;;;4993649;28;20045;-65
2022/10/03 07:09:54;;;;;;;16.27;2.00;;;12.50;99.90;;;;;;4994558;28;20045;-64
2022/10/03 07:12:30;;;;;;;10.23;2.35;;;12.60;99.90;;;;;;4993653;28;20037;-66
2022/10/03 07:14:58;;;;;;;9.23;2.83;;;12.60;99.90;;;;;;5018787;28;20064;-60
2022/10/03 07:17:49;;;;;;;17.95;2.78;;;12.70;99.90;;;;;;4999382;28;20114;-66
2022/10/03 07:20:43;;;;;;;10.93;1.75;;;12.70;99.90;;;;;;5001336;28;20128;-64
2022/10/03 07:24:02;;;;;;;11.70;1.77;;;12.80;99.90;;;;;;5008795;28;20050;-63
2022/10/03 07:26:45;;;;;;;12.93;1.90;;;12.90;99.90;;;;;;4954750;28;20053;-63
2022/10/03 07:29:25;;;;;;;12.43;2.10;;;12.90;99.90;;;;;;5009002;28;20061;-59
2022/10/03 07:32:06;;;;;;;7.15;1.60;;;12.90;99.90;;;;;;5006048;28;20514;-61
2022/10/03 07:34:44;;;;;;;10.43;1.70;;;13.00;99.90;;;;;;4992861;28;20112;-68
2022/10/03 07:40:31;;;;;;;16.67;3.00;;;13.10;99.90;;;;;;5009606;28;20570;-60
2022/10/03 07:43:12;;;;;;;11.07;2.95;;;13.20;99.90;;;;;;5007050;28;20084;-60
2022/10/03 07:46:12;;;;;;;18.48;3.67;;;13.30;99.90;;;;;;5013354;28;20050;-66
2022/10/03 07:48:56;;;;;;;11.05;2.78;;;13.50;99.90;;;;;;4989341;28;20033;-70
2022/10/03 07:51:43;;;;;;;13.77;2.90;;;13.70;99.90;;;;;;5009144;28;20045;-60
2022/10/03 07:54:37;;;;;;;11.48;2.85;;;13.80;99.90;;;;;;4999107;28;20529;-64
2022/10/03 07:57:45;;;;;;;10.75;2.28;;;13.90;99.90;;;;;;4994089;28;20042;-65
2022/10/03 08:00:21;;;;;;;8.80;2.53;;;14.10;99.90;;;;;;4953355;28;20050;-59
2022/10/03 08:03:25;;;;;;;13.63;2.70;;;14.20;99.90;;;;;;4988803;28;20046;-64
2022/10/03 08:06:09;;;;;;;17.25;3.13;;;14.30;99.90;;;;;;5000461;28;20492;-69
2022/10/03 08:08:57;;;;;;;8.20;2.03;;;14.40;99.90;;;;;;4987536;28;20547;-61
2022/10/03 08:11:54;;;;;;;16.70;1.92;;;14.60;99.90;;;;;;5006874;28;20042;-60
2022/10/03 08:14:48;;;;;;;14.32;2.20;;;14.70;99.90;;;;;;4989039;28;20046;-65
2022/10/03 08:17:50;;;;;;;11.23;1.98;;;14.80;99.90;;;;;;4989929;28;20096;-60
2022/10/03 08:20:32;;;;;;;10.93;2.03;;;14.90;99.90;;;;;;5003800;28;20484;-61
2022/10/03 08:23:25;;;;;;;5.38;1.70;;;15.10;99.90;;;;;;5006506;28;20052;-66
2022/10/03 08:26:16;;;;;;;11.80;1.70;;;15.20;99.90;;;;;;4987852;28;20496;-69
2022/10/03 08:29:03;;;;;;;15.23;2.05;;;15.20;99.90;;;;;;5001490;28;20060;-65
2022/10/03 08:32:06;;;;;;;11.43;2.53;;;15.30;99.90;;;;;;4994517;28;20053;-63
2022/10/03 08:34:52;;;;;;;8.20;1.55;;;15.40;99.90;;;;;;5024419;28;20049;-67
2022/10/03 08:37:37;;;;;;;12.38;2.17;;;15.50;99.90;;;;;;5005741;28;20076;-62
2022/10/03 08:40:25;;;;;;;13.70;2.35;;;15.60;99.90;;;;;;5002680;28;20527;-62
2022/10/03 08:43:28;;;;;;;9.48;2.08;;;15.60;99.90;;;;;;4991124;28;20065;-62
2022/10/03 08:46:13;;;;;;;14.30;2.00;;;15.60;99.90;;;;;;4929658;29;20565;-66
2022/10/03 08:49:06;;;;;;;14.90;2.13;;;15.60;99.90;;;;;;4999502;28;20050;-70
2022/10/03 08:51:45;;;;;;;7.65;1.52;;;15.60;99.90;;;;;;4995573;28;20050;-64
2022/10/03 08:54:30;;;;;;;16.40;2.95;;;15.60;99.90;;;;;;5005920;28;20107;-65
2022/10/03 08:57:33;;;;;;;7.53;1.67;;;15.60;99.90;;;;;;5003137;28;20868;-61
2022/10/03 09:00:11;;;;;;;12.65;1.80;;;15.60;99.90;;;;;;4999903;28;20041;-62
2022/10/03 09:02:55;;;;;;;9.05;1.52;;;15.60;99.90;;;;;;4993292;28;20189;-67
2022/10/03 09:05:32;;;;;;;10.02;1.58;;;15.70;99.90;;;;;;5003598;28;20510;-66
2022/10/03 09:08:32;;;;;;;10.05;1.83;;;15.70;99.90;;;;;;4995176;28;20436;-67
2022/10/03 09:11:17;;;;;;;;;;;15.70;99.90;;;;;;5001971;28;20065;-67
2022/10/03 09:14:20;;;;;;;9.48;1.63;;;15.70;99.90;;;;;;5003924;28;19925;-59
2022/10/03 09:16:55;;;;;;;9.05;1.88;;;15.80;99.90;;;;;;5003590;28;20137;-64
2022/10/03 09:19:31;;;;;;;7.72;1.60;;;15.80;99.90;;;;;;5007250;28;20492;-69
2022/10/03 09:22:18;;;;;;;9.15;1.83;;;15.90;99.90;;;;;;4990273;28;20072;-61
2022/10/03 09:24:54;;;;;;;7.32;2.50;;;15.90;99.90;;;;;;5024945;28;20042;-60
2022/10/03 09:27:48;;;;;;;12.52;1.60;;;16.10;99.90;;;;;;5008318;28;20052;-69
2022/10/03 09:30:24;;;;;;;9.57;1.83;;;16.10;99.90;;;;;;5004003;28;20080;-61
2022/10/03 09:33:28;;;;;;;9.20;2.05;;;16.10;99.90;;;;;;5005885;28;20118;-64
2022/10/03 09:36:16;;;;;;;5.97;1.50;;;16.20;99.90;;;;;;5007913;28;20391;-60
2022/10/03 09:38:54;;;;;;;4.68;1.42;;;16.20;99.90;;;;;;5003367;28;20049;-59
2022/10/03 09:41:36;;;;;;;11.82;1.67;;;16.30;99.90;;;;;;5006941;28;20071;-65
2022/10/03 09:44:14;;;;;;;7.53;1.92;;;16.30;99.90;;;;;;5007390;28;20053;-59
2022/10/03 09:50:18;;;;;;;7.43;1.50;;;16.50;99.90;;;;;;5006615;28;20057;-63
2022/10/03 09:53:15;;;;;;;7.25;1.40;;;16.40;99.90;;;;;;4998582;28;20063;-64
2022/10/03 09:56:11;;;;;;;8.55;1.80;;;16.40;99.90;;;;;;5005051;28;20395;-66
2022/10/03 09:59:26;;;;;;;7.72;1.50;;;16.50;99.90;;;;;;4989623;28;20400;-65
2022/10/03 10:02:27;;;;;;;8.32;1.42;;;16.70;99.90;;;;;;5008413;28;20050;-66
2022/10/03 10:05:30;;;;;;;13.13;2.00;;;16.90;99.90;;;;;;5022781;28;20046;-60
2022/10/03 10:08:32;;;;;;;6.78;1.50;;;16.90;99.90;;;;;;4987080;28;20049;-68
2022/10/03 10:11:13;;;;;;;5.70;1.35;;;16.90;99.20;;;;;;5027718;28;20044;-63
2022/10/03 10:14:03;;;;;;;6.50;1.17;;;17.00;97.80;;;;;;5011050;28;20498;-63
2022/10/03 10:16:50;;;;;;;8.02;1.20;;;16.90;99.90;;;;;;5011332;28;20120;-62
2022/10/03 10:19:25;;;;;;;6.65;1.60;;;17.00;99.80;;;;;;5007554;28;20053;-63
2022/10/03 10:22:09;;;;;;;6.45;1.58;;;17.00;99.90;;;;;;4978411;28;20483;-64
2022/10/03 10:24:57;;;;;;;5.13;1.17;;;17.00;98.40;;;;;;4994938;28;20420;-71
2022/10/03 10:28:01;;;;;;;10.25;1.38;;;17.00;96.60;;;;;;5003405;28;20119;-65
2022/10/03 10:30:56;;;;;;;7.20;1.02;;;17.00;99.00;;;;;;5007507;28;20049;-63
2022/10/03 10:33:52;;;;;;;9.85;1.70;;;17.00;94.40;;;;;;4964804;28;20444;-59
2022/10/03 10:36:52;;;;;;;6.47;1.30;;;17.10;99.90;;;;;;5010231;28;20037;-59
2022/10/03 10:39:47;;;;;;;5.03;1.20;;;16.90;99.90;;;;;;4989431;28;20048;-67
2022/10/03 10:42:33;;;;;;;6.82;1.13;;;17.00;95.20;;;;;;5008638;28;20621;-63
2022/10/03 10:45:14;;;;;;;12.75;1.80;;;17.00;97.50;;;;;;4969036;28;20527;-68
2022/10/03 10:48:07;;;;;;;7.72;1.60;;;17.00;99.90;;;;;;5009086;28;20116;-66
2022/10/03 10:50:45;;;;;;;8.13;1.58;;;16.90;96.70;;;;;;5009631;28;20041;-65
2022/10/03 10:54:02;;;;;;;8.05;2.30;;;16.80;94.70;;;;;;5007734;28;20065;-61
2022/10/03 10:56:46;;;;;;;10.68;1.73;;;16.90;99.90;;;;;;4964035;28;20072;-68
2022/10/03 10:59:49;;;;;;;5.97;2.03;;;16.90;99.90;;;;;;5014798;28;20045;-64
2022/10/03 11:02:42;;;;;;;4.97;1.38;;;17.00;99.90;;;;;;5008435;28;20049;-60
2022/10/03 11:05:28;;;;;;;7.05;1.70;;;17.20;99.90;;;;;;5005132;28;20077;-62
2022/10/03 11:08:15;;;;;;;8.75;1.50;;;17.30;99.90;;;;;;5008225;28;20048;-68
2022/10/03 11:11:06;;;;;;;6.43;1.10;;;17.30;97.30;;;;;;5007854;28;20447;-67
2022/10/03 11:13:54;;;;;;;3.38;1.20;;;17.30;97.20;;;;;;5010143;28;20092;-65
2022/10/03 11:16:34;;;;;;;6.68;1.13;;;17.20;98.00;;;;;;5011664;28;20064;-61
2022/10/03 11:19:25;;;;;;;8.73;1.88;;;17.30;99.90;;;;;;5010745;28;20413;-59
2022/10/03 11:22:01;;;;;;;8.27;1.52;;;17.40;96.70;;;;;;5009228;28;20144;-63
2022/10/03 11:24:49;;;;;;;10.13;2.05;;;17.30;99.90;;;;;;5011278;28;20057;-66
2022/10/03 11:27:35;;;;;;;8.95;1.77;;;17.10;96.90;;;;;;4993914;28;20064;-58
2022/10/03 11:30:47;;;;;;;11.13;1.55;;;17.10;99.90;;;;;;5009782;28;20056;-64
2022/10/03 11:33:34;;;;;;;7.50;1.48;;;17.20;99.90;;;;;;4973823;28;20063;-71
2022/10/03 11:36:21;;;;;;;7.05;1.40;;;17.10;99.90;;;;;;5009972;28;20456;-66
2022/10/03 11:38:53;;;;;;;7.40;1.52;;;17.00;99.90;;;;;;4999065;28;20049;-64
2022/10/03 11:41:34;;;;;;;5.93;1.50;;;16.80;97.10;;;;;;5010763;28;20061;-60
2022/10/03 11:44:22;;;;;;;2.47;0.98;;;16.60;97.80;;;;;;5007413;28;20049;-67
2022/10/03 11:46:56;;;;;;;6.35;1.45;;;16.60;99.90;;;;;;5009320;28;20079;-67
2022/10/03 11:49:40;;;;;;;4.47;1.15;;;16.60;99.90;;;;;;4994428;28;20049;-59
2022/10/03 11:52:22;;;;;;;3.60;1.00;;;16.70;99.90;;;;;;4990881;28;20084;-66
2022/10/03 11:54:55;;;;;;;9.02;1.50;;;16.80;97.90;;;;;;5027411;28;20054;-61
2022/10/03 11:57:30;;;;;;;3.42;1.05;;;16.80;97.30;;;;;;4992579;28;20489;-63
2022/10/03 12:00:15;;;;;;;5.00;1.10;;;16.70;95.80;;;;;;5008759;28;20054;-64
2022/10/03 12:02:59;;;;;;;5.68;1.35;;;16.80;96.20;;;;;;5009228;28;20128;-63
2022/10/03 12:05:48;;;;;;;7.43;1.52;;;16.90;96.60;;;;;;5005292;28;20381;-71
2022/10/03 12:11:27;;;;;;;5.28;1.88;;;17.10;95.50;;;;;;5005844;28;20053;-66
2022/10/03 12:14:15;;;;;;;5.03;1.13;;;17.20;94.30;;;;;;4998893;28;20060;-66
2022/10/03 12:17:04;;;;;;;4.70;1.35;;;17.40;95.20;;;;;;5005229;28;20543;-65
2022/10/03 12:19:37;;;;;;;6.80;1.33;;;17.30;95.90;;;;;;5005668;28;20128;-64
2022/10/03 12:22:12;;;;;;;5.53;1.27;;;17.30;96.60;;;;;;5004492;28;20052;-61
2022/10/03 12:24:44;;;;;;;4.78;1.05;;;17.20;96.10;;;;;;5003057;28;20050;-67
2022/10/03 12:27:12;;;;;;;9.30;2.05;;;17.30;98.10;;;;;;5003828;28;20459;-67
2022/10/03 12:29:57;;;;;;;5.53;1.40;;;17.30;97.70;;;;;;5004596;28;20492;-61
2022/10/03 12:32:48;;;;;;;4.63;1.10;;;17.40;90.00;;;;;;5005774;28;20630;-59
2022/10/03 12:35:20;;;;;;;5.38;1.10;;;17.40;96.90;;;;;;5006464;28;20057;-62
2022/10/03 12:38:19;;;;;;;6.20;1.30;;;17.50;93.60;;;;;;5009020;28;20033;-61
2022/10/03 12:41:05;;;;;;;3.42;0.90;;;17.70;96.00;;;;;;5008030;28;20436;-63
2022/10/03 12:43:40;;;;;;;2.42;1.17;;;17.70;96.20;;;;;;5004836;28;20137;-65
2022/10/03 12:46:14;;;;;;;6.63;0.88;;;17.60;86.30;;;;;;5006342;28;20041;-61
2022/10/03 12:48:54;;;;;;;6.90;1.17;;;17.60;89.20;;;;;;5003913;28;20124;-70
2022/10/03 12:51:53;;;;;;;5.15;0.90;;;17.50;93.00;;;;;;4995602;28;20049;-61
2022/10/03 12:54:31;;;;;;;4.80;1.00;;;17.60;94.40;;;;;;5002279;28;20084;-61
2022/10/03 12:57:10;;;;;;;5.03;1.10;;;17.60;86.00;;;;;;4991167;28;20173;-60
2022/10/03 13:00:02;;;;;;;6.45;1.05;;;17.50;94.50;;;;;;4995670;28;20049;-67
2022/10/03 13:02:38;;;;;;;4.60;1.23;;;17.40;95.20;;;;;;5012445;28;20058;-70
2022/10/03 13:05:09;;;;;;;3.63;0.90;;;17.20;96.60;;;;;;4997407;28;20337;-64
2022/10/03 13:07:45;;;;;;;4.32;1.00;;;17.00;95.60;;;;;;5000642;28;20437;-63
2022/10/03 13:10:35;;;;;;;7.15;1.20;;;16.90;96.70;;;;;;5004631;28;20057;-71
2022/10/03 13:13:24;;;;;;;6.13;1.45;;;16.80;99.10;;;;;;4995621;28;20091;-62
2022/10/03 13:16:23;;;;;;;7.65;1.88;;;16.70;99.90;;;;;;4987730;28;20060;-62
2022/10/03 13:19:28;;;;;;;13.30;1.42;;;16.70;99.90;;;;;;5001790;28;20057;-70
2022/10/03 13:22:42;;;;;;;6.35;1.70;;;16.70;99.90;;;;;;5002706;28;20132;-68
2022/10/03 13:25:32;;;;;;;4.25;1.20;;;16.70;99.90;;;;;;4923267;29;20047;-63
2022/10/03 13:28:17;;;;;;;4.60;1.50;;;16.70;99.90;;;;;;4915503;29;20047;-66
2022/10/03 13:30:46;;;;;;;6.85;1.20;;;16.60;99.20;;;;;;4981230;28;20054;-59
2022/10/03 13:33:18;;;;;;;7.50;1.98;;;16.70;99.90;;;;;;5003423;28;20579;-63
2022/10/03 13:36:04;;;;;;;5.82;1.10;;;16.80;99.40;;;;;;5005948;28;20057;-70
2022/10/03 13:39:14;;;;;;;2.58;0.82;;;16.80;99.70;;;;;;4984453;28;20144;-66
2022/10/03 13:42:10;;;;;;;4.00;1.30;;;16.90;97.20;;;;;;5008551;28;20124;-67
2022/10/03 13:44:39;;;;;;;6.32;1.67;;;17.00;99.90;;;;;;4995281;28;20128;-69
2022/10/03 13:47:14;;;;;;;7.85;1.40;;;17.00;97.90;;;;;;4992682;28;20489;-65
2022/10/03 13:50:00;;;;;;;6.07;1.38;;;16.90;99.90;;;;;;4980651;28;20356;-68
2022/10/03 13:52:35;;;;;;;8.40;1.75;;;16.90;99.60;;;;;;4989993;28;20065;-63
2022/10/03 13:55:25;;;;;;;8.23;2.03;;;16.80;97.40;;;;;;5003513;28;20460;-68
2022/10/03 13:58:30;;;;;;;6.10;1.02;;;16.80;99.90;;;;;;5001938;28;20552;-62
2022/10/03 14:01:20;;;;;;;4.50;1.30;;;16.70;99.90;;;;;;5002317;28;20042;-71
2022/10/03 14:03:47;;;;;;;4.78;1.17;;;16.60;99.90;;;;;;4996514;28;20069;-66
2022/10/03 14:06:35;;;;;;;6.07;1.00;;;16.50;99.90;;;;;;5000497;28;20989;-69
2022/10/03 14:09:26;;;;;;;8.70;1.23;;;16.50;99.90;;;;;;5003232;28;20045;-71
2022/10/03 14:12:06;;;;;;;7.30;1.60;;;16.50;99.90;;;;;;5018384;28;20463;-65
2022/10/03 14:15:17;;;;;;;6.03;1.25;;;16.50;99.90;;;;;;4994157;28;20057;-65
2022/10/03 14:17:53;;;;;;;5.47;1.20;;;16.50;99.90;;;;;;4996884;28;20133;-64
2022/10/03 14:20:57;;;;;;;7.68;1.00;;;16.50;99.90;;;;;;5003740;28;20911;-63
2022/10/03 14:23:40;;;;;;;7.20;1.35;;;16.50;99.90;;;;;;4988406;28;20268;-63
2022/10/03 14:26:14;;;;;;;6.70;1.10;;;16.50;99.90;;;;;;4997857;28;20045;-64
2022/10/03 14:29:14;;;;;;;4.47;1.02;;;16.50;99.90;;;;;;4981393;28;20057;-64
2022/10/03 14:32:18;;;;;;;8.45;1.75;;;16.50;99.90;;;;;;4985465;28;20064;-67
2022/10/03 14:34:55;;;;;;;8.20;1.27;;;16.50;99.90;;;;;;4997022;28;20496;-69
2022/10/03 14:37:43;;;;;;;9.27;1.20;;;16.50;99.90;;;;;;4998638;28;20085;-66
2022/10/03 14:40:43;;;;;;;9.90;1.40;;;16.50;99.90;;;;;;4986384;28;20053;-68